Time;durP1;ratioP1;P1;durP2;ratioP2;P2;SDS_P1;SDS_P2;PMS_P1;PMS_P2;Temp;Humidity;BMP_temperature;BMP_pressure;BME280_temperature;BME280_humidity;BME280_pressure;Samples;Min_cycle;Max_cycle;Signal;HPM_P1;HPM_P2
2022/01/09 00:00:54;;;;;;;;;46.75;39.50;;;;;;;;5163287;27;13594;-69
2022/01/09 00:03:19;;;;;;;;;44.50;39.75;;;;;;;;5163437;27;11537;-69
2022/01/09 00:05:45;;;;;;;;;55.00;43.00;;;;;;;;5163485;27;11920;-69
2022/01/09 00:08:10;;;;;;;;;47.00;43.00;;;;;;;;5163229;27;13287;-69
2022/01/09 00:10:36;;;;;;;;;43.50;39.75;;;;;;;;5163515;27;8780;-69
2022/01/09 00:13:01;;;;;;;;;46.50;40.25;;;;;;;;5162945;27;12223;-69
2022/01/09 00:15:26;;;;;;;;;39.25;36.00;;;;;;;;5162773;27;11378;-69
2022/01/09 00:17:52;;;;;;;;;40.50;35.00;;;;;;;;5162595;27;14407;-70
2022/01/09 00:20:17;;;;;;;;;41.75;35.75;;;;;;;;5162711;27;12256;-69
2022/01/09 00:22:48;;;;;;;;;39.75;34.00;;;;;;;;5162864;27;11588;-69
2022/01/09 00:25:15;;;;;;;;;32.00;26.25;;;;;;;;5163019;27;13375;-70
2022/01/09 00:27:40;;;;;;;;;41.75;40.25;;;;;;;;5162763;27;12417;-70
2022/01/09 00:30:06;;;;;;;;;43.00;37.00;;;;;;;;5162402;27;12364;-69
2022/01/09 00:32:32;;;;;;;;;29.00;23.75;;;;;;;;5162316;27;12820;-70
2022/01/09 00:34:57;;;;;;;;;30.00;30.00;;;;;;;;5162281;27;13304;-69
2022/01/09 00:37:22;;;;;;;;;35.25;34.00;;;;;;;;5162021;27;13224;-69
2022/01/09 00:39:48;;;;;;;;;38.75;35.25;;;;;;;;5162243;27;10347;-69
2022/01/09 00:42:13;;;;;;;;;39.50;37.00;;;;;;;;5162294;27;11605;-70
2022/01/09 00:44:38;;;;;;;;;42.00;35.25;;;;;;;;5162865;27;12553;-70
2022/01/09 00:47:04;;;;;;;;;43.25;35.00;;;;;;;;5162680;27;13246;-69
2022/01/09 00:49:29;;;;;;;;;40.50;37.75;;;;;;;;5162507;27;11445;-70
2022/01/09 00:51:54;;;;;;;;;40.25;39.75;;;;;;;;5162755;27;11382;-70
2022/01/09 00:54:20;;;;;;;;;39.50;30.75;;;;;;;;5162689;27;9588;-69
2022/01/09 00:56:45;;;;;;;;;34.00;33.00;;;;;;;;5161943;27;12694;-69
2022/01/09 00:59:11;;;;;;;;;41.00;37.75;;;;;;;;5162348;27;11528;-68
2022/01/09 01:01:36;;;;;;;;;43.75;36.50;;;;;;;;5161910;27;13236;-70
2022/01/09 01:04:04;;;;;;;;;37.00;36.25;;;;;;;;5161715;27;11399;-70
2022/01/09 01:06:29;;;;;;;;;36.50;35.00;;;;;;;;5162543;27;13377;-70
2022/01/09 01:08:55;;;;;;;;;41.75;37.00;;;;;;;;5161271;27;11382;-70
2022/01/09 01:11:20;;;;;;;;;39.00;32.75;;;;;;;;5161829;27;12846;-70
2022/01/09 01:13:45;;;;;;;;;42.50;39.50;;;;;;;;5161315;27;13500;-70
2022/01/09 01:16:11;;;;;;;;;35.75;33.75;;;;;;;;5161892;27;13231;-70
2022/01/09 01:18:36;;;;;;;;;43.75;35.25;;;;;;;;5161267;27;13298;-70
2022/01/09 01:21:01;;;;;;;;;36.00;35.00;;;;;;;;5161588;27;12389;-69
2022/01/09 01:23:27;;;;;;;;;37.75;33.75;;;;;;;;5142484;27;13564;-70
2022/01/09 01:25:53;;;;;;;;;35.25;35.00;;;;;;;;5161487;27;11449;-70
2022/01/09 01:28:19;;;;;;;;;34.00;33.50;;;;;;;;5162081;27;11422;-70
2022/01/09 01:30:44;;;;;;;;;40.50;34.50;;;;;;;;5161825;27;12611;-70
2022/01/09 01:33:09;;;;;;;;;37.50;35.00;;;;;;;;5162114;27;12295;-70
2022/01/09 01:35:34;;;;;;;;;37.75;35.50;;;;;;;;5161515;27;13236;-70
2022/01/09 01:38:00;;;;;;;;;37.00;35.50;;;;;;;;5161633;27;8820;-70
2022/01/09 01:40:26;;;;;;;;;38.75;34.00;;;;;;;;5161866;27;8919;-70
2022/01/09 01:42:51;;;;;;;;;39.50;33.50;;;;;;;;5161144;27;11395;-70
2022/01/09 01:45:16;;;;;;;;;36.25;34.00;;;;;;;;5161232;27;11765;-70
2022/01/09 01:47:42;;;;;;;;;35.75;34.00;;;;;;;;5161581;27;11426;-70
2022/01/09 01:50:11;;;;;;;;;40.50;37.00;;;;;;;;5161793;27;9809;-70
2022/01/09 01:52:41;;;;;;;;;39.25;34.75;;;;;;;;5160818;27;13908;-70
2022/01/09 01:55:08;;;;;;;;;49.75;41.25;;;;;;;;5160983;27;13335;-70
2022/01/09 01:57:34;;;;;;;;;32.75;31.00;;;;;;;;5161050;27;12569;-70
2022/01/09 01:59:59;;;;;;;;;33.00;32.00;;;;;;;;5161245;27;14369;-70
2022/01/09 02:02:26;;;;;;;;;43.75;37.00;;;;;;;;5161165;27;10536;-70
2022/01/09 02:04:51;;;;;;;;;43.50;37.25;;;;;;;;5160927;27;12439;-70
2022/01/09 02:07:17;;;;;;;;;35.00;33.00;;;;;;;;5161222;27;8910;-70
2022/01/09 02:09:43;;;;;;;;;39.25;37.25;;;;;;;;5161717;27;13869;-69
2022/01/09 02:12:09;;;;;;;;;36.75;33.00;;;;;;;;5161438;27;11688;-69
2022/01/09 02:14:35;;;;;;;;;38.75;33.75;;;;;;;;5142323;27;13453;-69
2022/01/09 02:17:00;;;;;;;;;40.00;29.50;;;;;;;;5160470;27;11907;-69
2022/01/09 02:19:27;;;;;;;;;37.75;37.00;;;;;;;;5161366;27;13246;-69
2022/01/09 02:21:54;;;;;;;;;38.00;38.00;;;;;;;;5165234;27;13435;-69
2022/01/09 02:24:22;;;;;;;;;36.00;34.75;;;;;;;;5164783;27;12087;-69
2022/01/09 02:26:48;;;;;;;;;40.25;37.25;;;;;;;;5164508;27;11482;-70
2022/01/09 02:29:13;;;;;;;;;49.00;39.50;;;;;;;;5164718;27;12352;-70
2022/01/09 02:31:39;;;;;;;;;40.00;38.25;;;;;;;;5165072;27;11386;-69
2022/01/09 09:41:42;;;;;;;;;4.67;4.67;;;;;;;;5182698;27;78332;-73
2022/01/09 09:44:09;;;;;;;;;0.67;0.67;;;;;;;;5158710;27;22886;-72
2022/01/09 09:46:35;;;;;;;;;5.33;5.00;;;;;;;;5159255;27;11121;-72
2022/01/09 09:49:00;;;;;;;;;11.00;9.00;;;;;;;;5160332;27;11714;-73
2022/01/09 09:51:28;;;;;;;;;4.67;4.00;;;;;;;;5179174;27;21541;-73
2022/01/09 09:53:55;;;;;;;;;21.00;17.33;;;;;;;;5177899;27;22105;-72
2022/01/09 09:56:20;;;;;;;;;9.33;9.00;;;;;;;;5177906;27;22662;-77
2022/01/09 09:58:47;;;;;;;;;5.00;5.00;;;;;;;;5177755;27;22432;-72
2022/01/09 10:01:28;;;;;;;;;3.67;3.67;;;;;;;;5179270;27;10371;-74
2022/01/09 10:03:57;;;;;;;;;2.00;1.67;;;;;;;;5178856;27;11412;-70
2022/01/09 10:06:33;;;;;;;;;2.00;1.00;;;;;;;;5163694;27;10733;-71
2022/01/09 10:09:04;;;;;;;;;6.00;2.33;;;;;;;;5158193;27;8870;-71
2022/01/09 10:11:39;;;;;;;;;6.67;3.67;;;;;;;;5157476;27;11411;-71
2022/01/09 10:14:11;;;;;;;;;2.00;1.00;;;;;;;;5170745;27;10403;-76
2022/01/09 10:16:37;;;;;;;;;3.67;2.00;;;;;;;;5178035;27;12202;-74
2022/01/09 10:19:02;;;;;;;;;1.00;1.00;;;;;;;;5175813;27;10661;-75
2022/01/09 10:21:27;;;;;;;;;3.00;2.00;;;;;;;;5178146;27;10382;-76
2022/01/09 10:24:01;;;;;;;;;2.00;2.00;;;;;;;;5178819;27;8927;-73
2022/01/09 10:26:27;;;;;;;;;1.00;1.00;;;;;;;;5168155;27;8772;-73
2022/01/09 10:28:53;;;;;;;;;7.00;7.00;;;;;;;;5175031;27;8776;-73
2022/01/09 10:31:19;;;;;;;;;13.33;10.00;;;;;;;;5166298;27;8900;-75
2022/01/09 10:33:59;;;;;;;;;14.00;12.33;;;;;;;;5174531;27;22670;-72
2022/01/09 10:36:39;;;;;;;;;10.33;7.67;;;;;;;;5177791;27;11808;-73
2022/01/09 10:39:09;;;;;;;;;3.00;3.00;;;;;;;;5178083;27;21468;-74
2022/01/09 10:41:58;;;;;;;;;3.00;3.00;;;;;;;;5177278;27;22485;-74
2022/01/09 10:44:27;;;;;;;;;14.33;12.33;;;;;;;;5176744;27;8814;-74
2022/01/09 10:46:54;;;;;;;;;19.00;18.00;;;;;;;;5175981;27;22839;-76
2022/01/09 10:49:20;;;;;;;;;28.67;16.67;;;;;;;;5171889;27;11462;-75
2022/01/09 10:51:45;;;;;;;;;74.00;44.33;;;;;;;;5169254;27;13352;-74
2022/01/09 10:54:10;;;;;;;;;62.33;40.67;;;;;;;;5141876;27;14850;-78
2022/01/09 10:56:36;;;;;;;;;9.67;6.33;;;;;;;;5158797;27;13247;-75
2022/01/09 10:59:01;;;;;;;;;5.67;5.67;;;;;;;;5159583;27;22457;-75
2022/01/09 11:01:31;;;;;;;;;3.67;3.67;;;;;;;;5152264;27;11587;-78
2022/01/09 11:04:00;;;;;;;;;39.00;27.67;;;;;;;;5142738;27;8801;-73
2022/01/09 11:06:27;;;;;;;;;5.00;3.00;;;;;;;;5123186;27;23452;-71
2022/01/09 11:08:53;;;;;;;;;19.67;17.67;;;;;;;;5142592;27;23110;-72
2022/01/09 11:13:55;;;;;;;;;14.33;11.67;;;;;;;;5141789;27;11451;-72
2022/01/09 11:16:34;;;;;;;;;13.33;10.00;;;;;;;;5143142;27;12721;-73
2022/01/09 11:19:05;;;;;;;;;12.33;10.67;;;;;;;;5142527;27;11965;-74
2022/01/09 11:21:30;;;;;;;;;20.67;14.00;;;;;;;;5144814;27;11509;-75
2022/01/09 11:23:59;;;;;;;;;37.00;30.33;;;;;;;;5156576;27;13482;-74
2022/01/09 11:26:29;;;;;;;;;32.00;28.67;;;;;;;;5149967;27;13316;-76
2022/01/09 11:28:55;;;;;;;;;22.67;22.67;;;;;;;;5143200;27;12455;-73
2022/01/09 11:31:26;;;;;;;;;19.33;15.00;;;;;;;;5148628;27;12195;-73
2022/01/09 11:34:00;;;;;;;;;8.33;8.33;;;;;;;;5158242;27;13420;-73
2022/01/09 11:36:44;;;;;;;;;10.00;7.67;;;;;;;;5142200;27;22984;-72
2022/01/09 11:39:20;;;;;;;;;7.00;7.00;;;;;;;;5161682;27;21427;-72
2022/01/09 11:42:04;;;;;;;;;26.67;24.00;;;;;;;;5163428;27;21426;-72
2022/01/09 11:44:30;;;;;;;;;22.67;21.67;;;;;;;;5162499;27;23989;-70
2022/01/09 11:47:06;;;;;;;;;9.00;7.67;;;;;;;;5163531;27;11585;-71
2022/01/09 11:49:57;;;;;;;;;18.00;15.00;;;;;;;;5163633;27;22809;-74
2022/01/09 11:52:26;;;;;;;;;10.33;9.67;;;;;;;;5162437;27;22399;-76
2022/01/09 11:54:54;;;;;;;;;14.33;12.00;;;;;;;;5140426;27;22389;-78
2022/01/09 11:57:48;;;;;;;;;10.00;10.00;;;;;;;;5141909;27;21444;-78
2022/01/09 12:00:31;;;;;;;;;12.33;10.00;;;;;;;;5110268;27;13664;-81
2022/01/09 12:02:56;;;;;;;;;13.00;12.33;;;;;;;;5141497;27;8778;-79
2022/01/09 12:05:21;;;;;;;;;53.00;38.33;;;;;;;;5141715;27;11583;-78
2022/01/09 12:07:48;;;;;;;;;9.33;9.00;;;;;;;;5141110;27;10360;-80
2022/01/09 12:10:13;;;;;;;;;17.33;11.00;;;;;;;;5141981;27;23751;-78
2022/01/09 12:12:38;;;;;;;;;16.00;15.00;;;;;;;;5142269;27;22300;-79
2022/01/09 12:15:05;;;;;;;;;30.33;23.00;;;;;;;;5142903;27;10880;-78
2022/01/09 12:17:33;;;;;;;;;31.67;25.67;;;;;;;;5155106;27;12286;-76
2022/01/09 12:20:04;;;;;;;;;69.75;56.25;;;;;;;;5156150;27;11467;-76
2022/01/09 12:22:51;;;;;;;;;32.33;29.00;;;;;;;;5163260;27;13304;-78
2022/01/09 12:25:22;;;;;;;;;14.33;11.33;;;;;;;;5143905;27;13885;-77
2022/01/09 12:27:51;;;;;;;;;26.00;22.33;;;;;;;;5141682;27;13872;-75
2022/01/09 12:33:09;;;;;;;;;10.00;10.00;;;;;;;;5140594;27;22435;-74
2022/01/09 12:35:35;;;;;;;;;10.00;9.00;;;;;;;;5141683;27;22398;-73
2022/01/09 12:38:01;;;;;;;;;7.67;7.00;;;;;;;;5139982;27;19470;-73
2022/01/09 12:40:29;;;;;;;;;7.67;6.00;;;;;;;;5139603;27;21846;-78
2022/01/09 12:42:56;;;;;;;;;7.00;7.00;;;;;;;;5140948;27;8803;-80
2022/01/09 12:45:43;;;;;;;;;6.00;6.00;;;;;;;;5141344;27;12217;-76
2022/01/09 12:48:15;;;;;;;;;7.00;5.00;;;;;;;;5141647;27;11504;-76
2022/01/09 12:50:41;;;;;;;;;10.67;7.00;;;;;;;;5160307;27;11432;-75
2022/01/09 12:53:16;;;;;;;;;13.67;8.00;;;;;;;;5142656;27;21713;-76
2022/01/09 12:56:00;;;;;;;;;10.50;7.50;;;;;;;;5141687;27;9705;-75
2022/01/09 12:58:27;;;;;;;;;13.00;10.33;;;;;;;;5161361;27;11379;-75
2022/01/09 13:00:52;;;;;;;;;12.33;11.00;;;;;;;;5159582;27;22731;-73
2022/01/09 13:03:18;;;;;;;;;39.67;36.00;;;;;;;;5160159;27;11443;-75
2022/01/09 13:05:51;;;;;;;;;80.00;53.67;;;;;;;;5159601;27;12474;-76
2022/01/09 13:08:17;;;;;;;;;11.00;8.00;;;;;;;;5160704;27;13381;-76
2022/01/09 13:10:42;;;;;;;;;14.00;13.33;;;;;;;;5141881;27;24722;-75
2022/01/09 13:13:10;;;;;;;;;13.00;8.00;;;;;;;;5160848;27;22534;-74
2022/01/09 13:15:36;;;;;;;;;84.00;57.00;;;;;;;;5142670;27;23023;-74
2022/01/09 13:18:02;;;;;;;;;16.67;11.00;;;;;;;;5153786;27;22857;-75
2022/01/09 13:20:28;;;;;;;;;16.33;11.00;;;;;;;;5146433;27;13704;-74
2022/01/09 13:23:06;;;;;;;;;12.00;10.33;;;;;;;;5148858;27;11486;-74
2022/01/09 13:25:44;;;;;;;;;10.00;7.00;;;;;;;;5149990;27;11465;-73
2022/01/09 13:28:20;;;;;;;;;13.33;11.00;;;;;;;;5136903;27;24053;-70
2022/01/09 13:30:46;;;;;;;;;4.00;4.00;;;;;;;;5139714;27;21942;-77
2022/01/09 13:33:11;;;;;;;;;10.00;8.00;;;;;;;;5149624;27;23086;-73
2022/01/09 13:35:36;;;;;;;;;3.50;2.50;;;;;;;;5149262;27;21406;-75
2022/01/09 13:38:02;;;;;;;;;19.67;13.00;;;;;;;;5150582;27;21758;-69
2022/01/09 13:40:27;;;;;;;;;22.33;17.67;;;;;;;;5148347;27;23296;-70
2022/01/09 13:42:52;;;;;;;;;8.67;8.00;;;;;;;;5150200;27;13246;-70
2022/01/09 13:45:21;;;;;;;;;4.75;4.75;;;;;;;;5149985;27;22430;-70
2022/01/09 13:47:51;;;;;;;;;5.00;4.00;;;;;;;;5134997;27;11572;-70
2022/01/09 13:50:20;;;;;;;;;0.75;0.75;;;;;;;;5147682;27;12674;-69
2022/01/09 13:52:46;;;;;;;;;7.50;2.00;;;;;;;;5147339;27;11623;-69
2022/01/09 13:55:13;;;;;;;;;15.00;14.00;;;;;;;;5139879;27;11789;-70
2022/01/09 13:57:55;;;;;;;;;20.00;15.00;;;;;;;;5139941;27;23597;-70
2022/01/09 14:00:24;;;;;;;;;8.50;8.00;;;;;;;;5140173;27;11487;-70
2022/01/09 14:02:49;;;;;;;;;7.50;5.50;;;;;;;;5139857;27;22520;-69
2022/01/09 14:05:19;;;;;;;;;5.50;4.00;;;;;;;;5140223;27;11538;-69
2022/01/09 14:07:45;;;;;;;;;42.00;34.00;;;;;;;;5145165;27;11392;-69
2022/01/09 14:10:11;;;;;;;;;11.50;9.00;;;;;;;;5146797;27;22803;-70
2022/01/09 14:12:39;;;;;;;;;14.25;8.50;;;;;;;;5139493;27;23086;-70
2022/01/09 14:15:11;;;;;;;;;4.00;4.00;;;;;;;;5139047;27;10908;-69
2022/01/09 14:17:36;;;;;;;;;1.25;0.00;;;;;;;;5139689;27;21662;-71
2022/01/09 14:20:13;;;;;;;;;3.50;2.00;;;;;;;;5140299;27;11532;-71
2022/01/09 14:22:40;;;;;;;;;2.00;2.00;;;;;;;;5147343;27;10574;-70
2022/01/09 14:25:11;;;;;;;;;2.00;1.00;;;;;;;;5140709;27;12175;-70
2022/01/09 14:27:38;;;;;;;;;3.00;1.25;;;;;;;;5150063;27;12423;-69
2022/01/09 14:30:19;;;;;;;;;1.00;1.00;;;;;;;;5152103;27;11461;-70
2022/01/09 14:32:44;;;;;;;;;1.50;1.00;;;;;;;;5152375;27;12555;-69
2022/01/09 14:35:24;;;;;;;;;0.50;0.50;;;;;;;;5141699;27;11412;-69
2022/01/09 14:37:49;;;;;;;;;11.75;6.25;;;;;;;;5152908;27;11456;-70
2022/01/09 14:40:17;;;;;;;;;4.25;3.50;;;;;;;;5152866;27;21596;-69
2022/01/09 14:42:42;;;;;;;;;12.67;11.33;;;;;;;;5150915;27;21720;-67
2022/01/09 14:45:08;;;;;;;;;5.00;5.00;;;;;;;;5153019;27;22383;-68
2022/01/09 14:47:33;;;;;;;;;8.00;3.00;;;;;;;;5162181;27;22370;-67
2022/01/09 14:50:03;;;;;;;;;6.00;3.50;;;;;;;;5164057;27;9212;-68
2022/01/09 14:52:28;;;;;;;;;5.75;4.25;;;;;;;;5142159;27;11947;-67
2022/01/09 14:54:53;;;;;;;;;6.50;5.50;;;;;;;;5163951;27;11424;-67
2022/01/09 14:57:19;;;;;;;;;3.75;1.75;;;;;;;;5163635;27;11285;-66
2022/01/09 14:59:44;;;;;;;;;14.67;14.33;;;;;;;;5153913;27;11356;-67
2022/01/09 15:02:10;;;;;;;;;22.67;19.67;;;;;;;;5154936;27;22615;-67
2022/01/09 15:04:35;;;;;;;;;29.00;24.67;;;;;;;;5151405;27;13274;-68
2022/01/09 15:07:01;;;;;;;;;5.00;1.25;;;;;;;;5152841;27;11959;-67
2022/01/09 15:09:27;;;;;;;;;1.50;1.50;;;;;;;;5154673;27;22397;-67
2022/01/09 15:11:52;;;;;;;;;4.00;2.00;;;;;;;;5152862;27;11964;-67
2022/01/09 15:14:19;;;;;;;;;6.75;3.00;;;;;;;;5160865;27;12374;-68
2022/01/09 15:16:44;;;;;;;;;1.50;1.50;;;;;;;;5162748;27;10523;-68
2022/01/09 15:19:10;;;;;;;;;2.00;2.00;;;;;;;;5148457;27;12607;-68
2022/01/09 15:21:35;;;;;;;;;2.00;2.00;;;;;;;;5158366;27;11442;-68
2022/01/09 15:24:00;;;;;;;;;1.00;1.00;;;;;;;;5163201;27;8799;-69
2022/01/09 15:26:26;;;;;;;;;2.00;2.00;;;;;;;;5162934;27;8792;-68
2022/01/09 15:28:51;;;;;;;;;4.25;2.00;;;;;;;;5163526;27;8792;-68
2022/01/09 15:31:16;;;;;;;;;5.00;2.00;;;;;;;;5162888;27;9301;-68
2022/01/09 15:33:42;;;;;;;;;1.75;1.75;;;;;;;;5163346;27;9050;-69
2022/01/09 15:36:07;;;;;;;;;3.00;0.25;;;;;;;;5162925;27;11717;-68
2022/01/09 15:38:33;;;;;;;;;3.00;1.25;;;;;;;;5162477;27;10264;-68
2022/01/09 15:40:58;;;;;;;;;4.75;1.00;;;;;;;;5161982;27;8974;-68
2022/01/09 15:43:23;;;;;;;;;1.00;1.00;;;;;;;;5155726;27;11343;-69
2022/01/09 15:45:49;;;;;;;;;1.00;1.00;;;;;;;;5147178;27;8943;-68
2022/01/09 15:48:14;;;;;;;;;1.00;0.75;;;;;;;;5141386;27;8818;-68
2022/01/09 15:50:40;;;;;;;;;1.50;1.00;;;;;;;;5150089;27;8812;-67
2022/01/09 15:53:05;;;;;;;;;0.25;0.25;;;;;;;;5161469;27;10253;-67
2022/01/09 15:55:31;;;;;;;;;1.00;1.00;;;;;;;;5160625;27;11846;-66
2022/01/09 15:58:00;;;;;;;;;0.00;0.00;;;;;;;;5160638;27;11346;-69
2022/01/09 16:00:26;;;;;;;;;2.50;1.00;;;;;;;;5161153;27;8908;-67
2022/01/09 16:02:52;;;;;;;;;2.00;1.00;;;;;;;;5161378;27;11407;-68
2022/01/09 16:05:17;;;;;;;;;1.25;1.00;;;;;;;;5161074;27;8799;-68
2022/01/09 16:07:42;;;;;;;;;1.00;1.00;;;;;;;;5157174;27;10028;-68
2022/01/09 16:10:08;;;;;;;;;1.00;1.00;;;;;;;;5142121;27;8938;-68
2022/01/09 16:12:37;;;;;;;;;1.00;0.75;;;;;;;;5161557;27;8965;-71
2022/01/09 16:15:03;;;;;;;;;1.00;1.00;;;;;;;;5160765;27;8944;-67
2022/01/09 16:17:28;;;;;;;;;1.50;1.00;;;;;;;;5158900;27;11395;-68
2022/01/09 16:19:54;;;;;;;;;0.25;0.25;;;;;;;;5159713;27;8804;-68
2022/01/09 16:22:19;;;;;;;;;1.50;1.00;;;;;;;;5160866;27;11298;-68
2022/01/09 16:24:44;;;;;;;;;0.25;0.25;;;;;;;;5162723;27;11419;-70
2022/01/09 16:27:09;;;;;;;;;1.00;0.00;;;;;;;;5160804;27;11272;-69
2022/01/09 16:29:35;;;;;;;;;1.00;1.00;;;;;;;;5161885;27;11289;-69
2022/01/09 16:32:00;;;;;;;;;1.00;1.00;;;;;;;;5162172;27;8912;-69
2022/01/09 16:34:25;;;;;;;;;0.50;0.50;;;;;;;;5162166;27;8760;-70
2022/01/09 16:36:51;;;;;;;;;2.00;1.00;;;;;;;;5161785;27;11844;-70
2022/01/09 16:39:16;;;;;;;;;0.00;0.00;;;;;;;;5161803;27;12515;-71
2022/01/09 16:41:43;;;;;;;;;1.00;0.75;;;;;;;;5162555;27;8812;-68
2022/01/09 16:44:09;;;;;;;;;0.75;0.75;;;;;;;;5162958;27;11383;-69
2022/01/09 16:46:35;;;;;;;;;1.00;1.00;;;;;;;;5162179;27;11400;-68
2022/01/09 16:49:00;;;;;;;;;0.00;0.00;;;;;;;;5161960;27;11392;-69
2022/01/09 16:51:25;;;;;;;;;0.25;0.25;;;;;;;;5161903;27;8780;-68
2022/01/09 16:53:52;;;;;;;;;0.25;0.00;;;;;;;;5162027;27;8800;-68
2022/01/09 16:56:18;;;;;;;;;1.00;1.00;;;;;;;;5162147;27;8752;-67
2022/01/09 16:58:44;;;;;;;;;1.00;1.00;;;;;;;;5162478;27;11394;-70
2022/01/09 17:01:09;;;;;;;;;2.00;2.00;;;;;;;;5162811;27;8772;-68
2022/01/09 17:03:36;;;;;;;;;1.00;1.00;;;;;;;;5162144;27;11407;-68
2022/01/09 17:06:02;;;;;;;;;1.00;1.00;;;;;;;;5161873;27;8972;-70
2022/01/09 17:08:33;;;;;;;;;4.00;2.00;;;;;;;;5158460;27;11400;-70
2022/01/09 17:10:58;;;;;;;;;5.00;1.00;;;;;;;;5151804;27;11426;-73
2022/01/09 17:13:24;;;;;;;;;4.00;2.00;;;;;;;;5149824;27;11470;-70
2022/01/09 17:15:49;;;;;;;;;4.33;2.00;;;;;;;;5160859;27;8795;-71
2022/01/09 17:18:14;;;;;;;;;2.00;2.00;;;;;;;;5161622;27;8768;-71
2022/01/09 17:20:39;;;;;;;;;1.00;1.00;;;;;;;;5146439;27;9391;-71
2022/01/09 17:23:05;;;;;;;;;0.00;0.00;;;;;;;;5152859;27;8987;-69
2022/01/09 17:25:30;;;;;;;;;1.75;0.00;;;;;;;;5159474;27;8835;-69
2022/01/09 17:27:56;;;;;;;;;0.50;0.50;;;;;;;;5156343;27;9497;-70
2022/01/09 17:30:22;;;;;;;;;1.00;1.00;;;;;;;;5140216;27;13077;-69
2022/01/09 17:32:47;;;;;;;;;4.00;4.00;;;;;;;;5161767;27;11494;-72
2022/01/09 17:35:12;;;;;;;;;1.67;1.67;;;;;;;;5142593;27;11244;-70
2022/01/09 17:37:38;;;;;;;;;2.00;2.00;;;;;;;;5143268;27;13573;-72
2022/01/09 17:40:04;;;;;;;;;2.00;2.00;;;;;;;;5160671;27;11847;-71
2022/01/09 17:42:30;;;;;;;;;1.00;1.00;;;;;;;;5161879;27;8807;-70
2022/01/09 17:44:57;;;;;;;;;1.00;1.00;;;;;;;;5161338;27;8894;-76
2022/01/09 17:47:23;;;;;;;;;2.00;2.00;;;;;;;;5142318;27;11489;-73
2022/01/09 17:49:49;;;;;;;;;1.33;1.00;;;;;;;;5141276;27;11432;-73
2022/01/09 17:52:15;;;;;;;;;2.00;2.00;;;;;;;;5156940;27;10315;-75
2022/01/09 17:54:40;;;;;;;;;1.67;1.67;;;;;;;;5159901;27;12140;-77
2022/01/09 17:57:05;;;;;;;;;2.00;2.00;;;;;;;;5159688;27;11495;-74
2022/01/09 17:59:31;;;;;;;;;5.00;5.00;;;;;;;;5159292;27;11376;-73
2022/01/09 18:01:56;;;;;;;;;6.67;4.00;;;;;;;;5160728;27;8954;-73
2022/01/09 18:04:22;;;;;;;;;5.00;5.00;;;;;;;;5162359;27;10472;-73
2022/01/09 18:06:47;;;;;;;;;5.00;5.00;;;;;;;;5163819;27;10416;-72
2022/01/09 18:09:12;;;;;;;;;7.00;3.33;;;;;;;;5163865;27;8760;-73
2022/01/09 18:11:38;;;;;;;;;4.67;2.00;;;;;;;;5163613;27;11500;-73
2022/01/09 18:14:03;;;;;;;;;5.00;5.00;;;;;;;;5163039;27;11556;-75
2022/01/09 18:16:28;;;;;;;;;5.00;2.00;;;;;;;;5163403;27;10487;-80
2022/01/09 18:18:54;;;;;;;;;7.00;7.00;;;;;;;;5163066;27;8784;-73
2022/01/09 18:21:19;;;;;;;;;6.33;6.33;;;;;;;;5162756;27;8828;-72
2022/01/09 18:23:45;;;;;;;;;4.00;4.00;;;;;;;;5164235;27;11353;-73
2022/01/09 18:26:11;;;;;;;;;2.67;2.67;;;;;;;;5145616;27;11750;-73
2022/01/09 18:28:36;;;;;;;;;7.00;7.00;;;;;;;;5145531;27;12689;-73
2022/01/09 18:31:02;;;;;;;;;7.33;5.00;;;;;;;;5164214;27;12610;-75
2022/01/09 18:33:27;;;;;;;;;7.00;5.00;;;;;;;;5163999;27;9459;-73
2022/01/09 18:35:52;;;;;;;;;7.00;5.00;;;;;;;;5152424;27;8762;-74
2022/01/09 18:38:18;;;;;;;;;8.00;5.00;;;;;;;;5152701;27;8801;-74
2022/01/09 18:40:44;;;;;;;;;7.00;5.00;;;;;;;;5142992;27;8810;-75
2022/01/09 18:43:10;;;;;;;;;4.00;4.00;;;;;;;;5143868;27;8770;-74
2022/01/09 18:45:35;;;;;;;;;5.00;4.00;;;;;;;;5144195;27;9009;-75
2022/01/09 18:48:01;;;;;;;;;7.00;5.00;;;;;;;;5125464;27;10226;-76
2022/01/09 18:50:26;;;;;;;;;7.00;4.33;;;;;;;;5124463;27;11003;-73
2022/01/09 18:52:52;;;;;;;;;11.00;7.00;;;;;;;;5140747;27;8911;-73
2022/01/09 18:55:17;;;;;;;;;5.00;5.00;;;;;;;;5142757;27;21801;-73
2022/01/09 18:57:43;;;;;;;;;9.00;5.00;;;;;;;;5143015;27;22519;-72
2022/01/09 19:00:11;;;;;;;;;5.67;5.00;;;;;;;;5141478;27;8984;-72
2022/01/09 19:02:36;;;;;;;;;7.00;4.67;;;;;;;;5123869;27;9209;-74
2022/01/09 19:05:03;;;;;;;;;5.00;5.00;;;;;;;;5142918;27;11301;-73
2022/01/09 19:07:28;;;;;;;;;5.67;4.00;;;;;;;;5147022;27;11558;-72
2022/01/09 19:09:53;;;;;;;;;5.00;5.00;;;;;;;;5143934;27;10178;-73
2022/01/09 19:12:19;;;;;;;;;4.67;4.33;;;;;;;;5162614;27;9636;-72
2022/01/09 19:14:44;;;;;;;;;4.00;2.67;;;;;;;;5162414;27;12439;-77
2022/01/09 19:17:09;;;;;;;;;7.33;7.00;;;;;;;;5162126;27;10325;-73
2022/01/09 19:19:35;;;;;;;;;6.00;3.33;;;;;;;;5143821;27;11644;-74
2022/01/09 19:22:01;;;;;;;;;5.00;5.00;;;;;;;;5163291;27;11531;-70
2022/01/09 19:24:26;;;;;;;;;9.33;7.00;;;;;;;;5162787;27;11308;-73
2022/01/09 19:26:53;;;;;;;;;10.00;8.00;;;;;;;;5144397;27;10900;-72
2022/01/09 19:29:18;;;;;;;;;9.33;9.33;;;;;;;;5162002;27;22006;-72
2022/01/09 19:31:43;;;;;;;;;10.00;8.00;;;;;;;;5162437;27;21328;-69
2022/01/09 19:34:09;;;;;;;;;7.67;4.67;;;;;;;;5153172;27;23175;-71
2022/01/09 19:36:34;;;;;;;;;4.00;4.00;;;;;;;;5162436;27;21307;-71
2022/01/09 19:39:00;;;;;;;;;4.33;4.00;;;;;;;;5162776;27;12503;-73
2022/01/09 19:41:25;;;;;;;;;5.67;4.67;;;;;;;;5157200;27;8922;-72
2022/01/09 19:43:50;;;;;;;;;0.00;0.00;;;;;;;;5142902;27;11482;-70
2022/01/09 19:46:16;;;;;;;;;4.00;4.00;;;;;;;;5151463;27;11755;-72
2022/01/09 19:48:41;;;;;;;;;5.00;4.00;;;;;;;;5152442;27;8991;-70
2022/01/09 19:51:06;;;;;;;;;10.00;5.67;;;;;;;;5159913;27;8787;-71
2022/01/09 19:53:32;;;;;;;;;4.00;4.00;;;;;;;;5163020;27;21603;-73
2022/01/09 19:55:57;;;;;;;;;2.00;2.00;;;;;;;;5159428;27;22847;-70
2022/01/09 19:58:24;;;;;;;;;2.00;2.00;;;;;;;;5158411;27;10333;-70
2022/01/09 20:00:49;;;;;;;;;3.33;1.33;;;;;;;;5148614;27;8864;-68
2022/01/09 20:03:15;;;;;;;;;8.00;4.00;;;;;;;;5136171;27;13422;-69
2022/01/09 20:05:40;;;;;;;;;4.33;2.00;;;;;;;;5152856;27;12945;-70
2022/01/09 20:08:05;;;;;;;;;10.00;5.00;;;;;;;;5154838;27;10660;-68
2022/01/09 20:10:32;;;;;;;;;3.33;3.33;;;;;;;;5152897;27;21390;-67
2022/01/09 20:12:57;;;;;;;;;4.00;4.00;;;;;;;;5142696;27;21683;-70
2022/01/09 20:15:23;;;;;;;;;1.33;1.33;;;;;;;;5152740;27;11660;-70
2022/01/09 20:17:48;;;;;;;;;2.33;1.67;;;;;;;;5162298;27;11284;-70
2022/01/09 20:20:18;;;;;;;;;7.67;2.67;;;;;;;;5161904;27;11534;-69
2022/01/09 20:22:43;;;;;;;;;4.33;1.00;;;;;;;;5162233;27;10448;-70
2022/01/09 20:25:09;;;;;;;;;3.33;1.67;;;;;;;;5154370;27;11869;-69
2022/01/09 20:27:35;;;;;;;;;2.00;1.67;;;;;;;;5148991;27;11395;-69
2022/01/09 20:30:00;;;;;;;;;1.00;1.00;;;;;;;;5142431;27;8888;-69
2022/01/09 20:32:25;;;;;;;;;1.33;1.33;;;;;;;;5142130;27;11293;-69
2022/01/09 20:34:51;;;;;;;;;1.00;1.00;;;;;;;;5141487;27;8797;-70
2022/01/09 20:37:16;;;;;;;;;1.67;1.67;;;;;;;;5141530;27;8766;-70
2022/01/09 20:39:41;;;;;;;;;2.00;1.00;;;;;;;;5140897;27;8797;-70
2022/01/09 20:42:07;;;;;;;;;0.33;0.33;;;;;;;;5141778;27;11312;-70
2022/01/09 20:44:32;;;;;;;;;2.00;2.00;;;;;;;;5142141;27;11268;-70
2022/01/09 20:46:57;;;;;;;;;4.00;1.00;;;;;;;;5141604;27;11523;-71
2022/01/09 20:49:23;;;;;;;;;1.67;1.00;;;;;;;;5141836;27;8940;-69
2022/01/09 20:51:50;;;;;;;;;8.00;4.00;;;;;;;;5141692;27;10031;-69
2022/01/09 20:54:16;;;;;;;;;9.33;7.67;;;;;;;;5140884;27;10619;-70
2022/01/09 20:56:41;;;;;;;;;14.00;13.33;;;;;;;;5141284;27;11513;-69
2022/01/09 20:59:06;;;;;;;;;8.00;7.67;;;;;;;;5140870;27;22372;-70
2022/01/09 21:01:31;;;;;;;;;6.67;6.67;;;;;;;;5140841;27;22256;-69
2022/01/09 21:03:57;;;;;;;;;1.67;1.67;;;;;;;;5140989;27;10561;-70
2022/01/09 21:06:22;;;;;;;;;1.00;1.00;;;;;;;;5141727;27;9520;-70
2022/01/09 21:08:48;;;;;;;;;2.00;1.00;;;;;;;;5141657;27;8778;-69
2022/01/09 21:11:13;;;;;;;;;1.33;0.67;;;;;;;;5141516;27;8958;-69
2022/01/09 21:13:38;;;;;;;;;0.00;0.00;;;;;;;;5141105;27;11280;-72
2022/01/09 21:16:04;;;;;;;;;0.00;0.00;;;;;;;;5141074;27;11340;-70
2022/01/09 21:18:30;;;;;;;;;0.00;0.00;;;;;;;;5154309;27;8911;-70
2022/01/09 21:20:56;;;;;;;;;0.67;0.67;;;;;;;;5158778;27;8930;-70
2022/01/09 21:23:21;;;;;;;;;1.33;0.33;;;;;;;;5161478;27;8765;-69
2022/01/09 21:25:47;;;;;;;;;0.00;0.00;;;;;;;;5162120;27;12663;-70
2022/01/09 21:28:13;;;;;;;;;0.00;0.00;;;;;;;;5161545;27;11296;-69
2022/01/09 21:30:39;;;;;;;;;0.00;0.00;;;;;;;;5162623;27;8812;-70
2022/01/09 21:33:04;;;;;;;;;0.00;0.00;;;;;;;;5162275;27;11385;-70
2022/01/09 21:35:30;;;;;;;;;0.67;0.67;;;;;;;;5161914;27;8768;-70
2022/01/09 21:37:56;;;;;;;;;1.00;0.00;;;;;;;;5149536;27;8823;-69
2022/01/09 21:40:21;;;;;;;;;0.33;0.00;;;;;;;;5142365;27;11294;-69
2022/01/09 21:42:46;;;;;;;;;0.00;0.00;;;;;;;;5152187;27;8856;-68
2022/01/09 21:45:12;;;;;;;;;0.00;0.00;;;;;;;;5161130;27;8820;-69
2022/01/09 21:47:38;;;;;;;;;0.00;0.00;;;;;;;;5161782;27;8780;-69